sensor_id;sensor_type;location;lat;lon;timestamp;P1;durP1;ratioP1;P2;durP2;ratioP2
39772;SDS011;25451;51.960;6.250;2023-07-13T00:00:27;5.35;;;1.60;;
39772;SDS011;25451;51.960;6.250;2023-07-13T00:02:52;5.83;;;1.40;;
39772;SDS011;25451;51.960;6.250;2023-07-13T00:05:21;6.28;;;1.35;;
39772;SDS011;25451;51.960;6.250;2023-07-13T00:07:48;4.63;;;1.70;;
39772;SDS011;25451;51.960;6.250;2023-07-13T00:10:14;5.72;;;1.80;;
39772;SDS011;25451;51.960;6.250;2023-07-13T00:12:40;5.37;;;1.90;;
39772;SDS011;25451;51.960;6.250;2023-07-13T00:15:07;3.88;;;1.58;;
39772;SDS011;25451;51.960;6.250;2023-07-13T00:17:37;5.70;;;1.55;;
39772;SDS011;25451;51.960;6.250;2023-07-13T00:20:04;4.90;;;1.60;;
39772;SDS011;25451;51.960;6.250;2023-07-13T00:22:30;5.70;;;1.40;;
39772;SDS011;25451;51.960;6.250;2023-07-13T00:24:56;5.93;;;1.53;;
39772;SDS011;25451;51.960;6.250;2023-07-13T00:27:22;4.28;;;1.38;;
39772;SDS011;25451;51.960;6.250;2023-07-13T00:29:47;5.03;;;1.40;;
39772;SDS011;25451;51.960;6.250;2023-07-13T00:32:13;4.60;;;1.30;;
39772;SDS011;25451;51.960;6.250;2023-07-13T00:34:38;3.60;;;1.40;;
39772;SDS011;25451;51.960;6.250;2023-07-13T00:37:05;5.13;;;1.27;;
39772;SDS011;25451;51.960;6.250;2023-07-13T00:39:32;4.65;;;1.20;;
39772;SDS011;25451;51.960;6.250;2023-07-13T00:41:58;3.33;;;1.20;;
39772;SDS011;25451;51.960;6.250;2023-07-13T00:44:24;3.42;;;1.25;;
39772;SDS011;25451;51.960;6.250;2023-07-13T00:46:50;3.57;;;1.20;;
39772;SDS011;25451;51.960;6.250;2023-07-13T00:49:17;5.15;;;1.10;;
39772;SDS011;25451;51.960;6.250;2023-07-13T00:51:49;6.82;;;1.30;;
39772;SDS011;25451;51.960;6.250;2023-07-13T00:54:25;3.53;;;1.35;;
39772;SDS011;25451;51.960;6.250;2023-07-13T00:56:55;3.50;;;1.50;;
39772;SDS011;25451;51.960;6.250;2023-07-13T00:59:24;2.95;;;1.30;;
39772;SDS011;25451;51.960;6.250;2023-07-13T01:01:51;5.00;;;1.10;;
39772;SDS011;25451;51.960;6.250;2023-07-13T01:04:17;2.90;;;1.00;;
39772;SDS011;25451;51.960;6.250;2023-07-13T01:06:43;2.30;;;1.10;;
39772;SDS011;25451;51.960;6.250;2023-07-13T01:09:10;3.65;;;1.10;;
39772;SDS011;25451;51.960;6.250;2023-07-13T01:11:37;4.23;;;1.40;;
39772;SDS011;25451;51.960;6.250;2023-07-13T01:14:03;4.82;;;1.10;;
39772;SDS011;25451;51.960;6.250;2023-07-13T01:16:30;4.65;;;1.10;;
39772;SDS011;25451;51.960;6.250;2023-07-13T01:18:57;10.10;;;1.20;;
39772;SDS011;25451;51.960;6.250;2023-07-13T01:21:29;2.83;;;0.93;;
39772;SDS011;25451;51.960;6.250;2023-07-13T01:23:57;5.53;;;1.10;;
39772;SDS011;25451;51.960;6.250;2023-07-13T01:26:23;4.78;;;1.20;;
39772;SDS011;25451;51.960;6.250;2023-07-13T01:28:48;4.27;;;1.20;;
39772;SDS011;25451;51.960;6.250;2023-07-13T01:31:14;3.17;;;1.10;;
39772;SDS011;25451;51.960;6.250;2023-07-13T01:33:39;4.07;;;1.30;;
39772;SDS011;25451;51.960;6.250;2023-07-13T01:36:06;2.85;;;0.95;;
39772;SDS011;25451;51.960;6.250;2023-07-13T01:38:33;2.40;;;1.00;;
39772;SDS011;25451;51.960;6.250;2023-07-13T01:40:59;4.53;;;1.17;;
39772;SDS011;25451;51.960;6.250;2023-07-13T01:43:25;4.50;;;1.25;;
39772;SDS011;25451;51.960;6.250;2023-07-13T01:45:50;2.67;;;1.20;;
39772;SDS011;25451;51.960;6.250;2023-07-13T01:48:16;5.33;;;1.30;;
39772;SDS011;25451;51.960;6.250;2023-07-13T01:50:41;5.50;;;1.13;;
39772;SDS011;25451;51.960;6.250;2023-07-13T01:53:07;5.40;;;1.30;;
39772;SDS011;25451;51.960;6.250;2023-07-13T01:55:33;4.87;;;1.20;;
39772;SDS011;25451;51.960;6.250;2023-07-13T01:57:59;4.60;;;1.20;;
39772;SDS011;25451;51.960;6.250;2023-07-13T02:00:24;6.50;;;1.20;;
39772;SDS011;25451;51.960;6.250;2023-07-13T02:02:50;4.30;;;1.30;;
39772;SDS011;25451;51.960;6.250;2023-07-13T02:05:16;5.13;;;1.70;;
39772;SDS011;25451;51.960;6.250;2023-07-13T02:07:42;5.93;;;1.38;;
39772;SDS011;25451;51.960;6.250;2023-07-13T02:10:08;3.27;;;1.27;;
39772;SDS011;25451;51.960;6.250;2023-07-13T02:12:34;4.00;;;1.20;;
39772;SDS011;25451;51.960;6.250;2023-07-13T02:15:00;6.28;;;1.23;;
39772;SDS011;25451;51.960;6.250;2023-07-13T02:17:26;4.93;;;1.30;;
39772;SDS011;25451;51.960;6.250;2023-07-13T02:19:52;5.88;;;1.40;;
39772;SDS011;25451;51.960;6.250;2023-07-13T02:22:18;4.50;;;1.40;;
39772;SDS011;25451;51.960;6.250;2023-07-13T02:24:43;4.68;;;1.83;;
39772;SDS011;25451;51.960;6.250;2023-07-13T02:27:08;6.23;;;1.50;;
39772;SDS011;25451;51.960;6.250;2023-07-13T02:29:34;9.67;;;1.80;;
39772;SDS011;25451;51.960;6.250;2023-07-13T02:32:02;4.28;;;1.35;;
39772;SDS011;25451;51.960;6.250;2023-07-13T02:34:28;3.70;;;1.30;;
39772;SDS011;25451;51.960;6.250;2023-07-13T02:36:53;4.60;;;1.60;;
39772;SDS011;25451;51.960;6.250;2023-07-13T02:39:19;5.55;;;1.80;;
39772;SDS011;25451;51.960;6.250;2023-07-13T02:41:44;3.33;;;1.40;;
39772;SDS011;25451;51.960;6.250;2023-07-13T02:44:12;6.00;;;1.50;;
39772;SDS011;25451;51.960;6.250;2023-07-13T02:46:38;6.50;;;1.30;;
39772;SDS011;25451;51.960;6.250;2023-07-13T02:49:04;5.20;;;1.38;;
39772;SDS011;25451;51.960;6.250;2023-07-13T02:51:30;4.60;;;1.35;;
39772;SDS011;25451;51.960;6.250;2023-07-13T02:53:58;4.53;;;1.40;;
39772;SDS011;25451;51.960;6.250;2023-07-13T02:56:24;2.80;;;1.30;;
39772;SDS011;25451;51.960;6.250;2023-07-13T02:58:51;5.32;;;1.70;;
39772;SDS011;25451;51.960;6.250;2023-07-13T03:01:17;3.57;;;1.20;;
39772;SDS011;25451;51.960;6.250;2023-07-13T03:03:44;3.03;;;1.13;;
39772;SDS011;25451;51.960;6.250;2023-07-13T03:06:10;3.33;;;1.33;;
39772;SDS011;25451;51.960;6.250;2023-07-13T03:08:36;6.47;;;1.37;;
39772;SDS011;25451;51.960;6.250;2023-07-13T03:11:03;6.85;;;1.40;;
39772;SDS011;25451;51.960;6.250;2023-07-13T03:13:31;5.57;;;1.40;;
39772;SDS011;25451;51.960;6.250;2023-07-13T03:15:56;7.68;;;1.50;;
39772;SDS011;25451;51.960;6.250;2023-07-13T03:18:22;5.32;;;1.40;;
39772;SDS011;25451;51.960;6.250;2023-07-13T03:20:50;4.53;;;1.27;;
39772;SDS011;25451;51.960;6.250;2023-07-13T03:23:16;4.05;;;1.40;;
39772;SDS011;25451;51.960;6.250;2023-07-13T03:25:42;5.23;;;1.57;;
39772;SDS011;25451;51.960;6.250;2023-07-13T03:28:08;5.13;;;1.40;;
39772;SDS011;25451;51.960;6.250;2023-07-13T03:30:33;4.40;;;1.40;;
39772;SDS011;25451;51.960;6.250;2023-07-13T03:32:58;6.87;;;1.50;;
39772;SDS011;25451;51.960;6.250;2023-07-13T03:35:24;5.77;;;1.40;;
39772;SDS011;25451;51.960;6.250;2023-07-13T03:37:49;4.70;;;1.50;;
39772;SDS011;25451;51.960;6.250;2023-07-13T03:40:16;6.28;;;1.58;;
39772;SDS011;25451;51.960;6.250;2023-07-13T03:42:41;6.20;;;1.50;;
39772;SDS011;25451;51.960;6.250;2023-07-13T03:45:07;4.87;;;1.80;;
39772;SDS011;25451;51.960;6.250;2023-07-13T03:47:33;5.20;;;1.35;;
39772;SDS011;25451;51.960;6.250;2023-07-13T03:49:58;3.78;;;1.30;;
39772;SDS011;25451;51.960;6.250;2023-07-13T03:52:23;5.73;;;1.60;;
39772;SDS011;25451;51.960;6.250;2023-07-13T03:54:49;6.27;;;1.60;;
39772;SDS011;25451;51.960;6.250;2023-07-13T03:57:14;6.07;;;1.60;;
39772;SDS011;25451;51.960;6.250;2023-07-13T03:59:40;3.83;;;1.40;;
39772;SDS011;25451;51.960;6.250;2023-07-13T04:02:05;6.47;;;1.73;;
39772;SDS011;25451;51.960;6.250;2023-07-13T04:04:31;4.27;;;1.37;;
39772;SDS011;25451;51.960;6.250;2023-07-13T04:06:59;6.57;;;1.67;;
39772;SDS011;25451;51.960;6.250;2023-07-13T04:09:25;9.13;;;1.70;;
39772;SDS011;25451;51.960;6.250;2023-07-13T04:11:50;7.07;;;1.60;;
39772;SDS011;25451;51.960;6.250;2023-07-13T04:14:16;5.68;;;1.60;;
39772;SDS011;25451;51.960;6.250;2023-07-13T04:16:42;3.28;;;1.48;;
39772;SDS011;25451;51.960;6.250;2023-07-13T04:19:08;4.18;;;1.60;;
39772;SDS011;25451;51.960;6.250;2023-07-13T04:21:35;4.93;;;1.60;;
39772;SDS011;25451;51.960;6.250;2023-07-13T04:24:01;4.18;;;1.83;;
39772;SDS011;25451;51.960;6.250;2023-07-13T04:26:27;8.73;;;1.92;;
39772;SDS011;25451;51.960;6.250;2023-07-13T04:28:53;5.53;;;1.60;;
39772;SDS011;25451;51.960;6.250;2023-07-13T04:31:19;6.00;;;1.90;;
39772;SDS011;25451;51.960;6.250;2023-07-13T04:33:45;7.18;;;1.75;;
39772;SDS011;25451;51.960;6.250;2023-07-13T04:36:10;6.13;;;1.67;;
39772;SDS011;25451;51.960;6.250;2023-07-13T04:38:36;5.33;;;1.80;;
39772;SDS011;25451;51.960;6.250;2023-07-13T04:41:03;4.93;;;2.30;;
39772;SDS011;25451;51.960;6.250;2023-07-13T04:43:30;4.93;;;1.90;;
39772;SDS011;25451;51.960;6.250;2023-07-13T04:45:57;3.72;;;1.50;;
39772;SDS011;25451;51.960;6.250;2023-07-13T04:48:23;5.68;;;1.90;;
39772;SDS011;25451;51.960;6.250;2023-07-13T04:50:55;6.40;;;1.95;;
39772;SDS011;25451;51.960;6.250;2023-07-13T04:53:21;6.00;;;2.00;;
39772;SDS011;25451;51.960;6.250;2023-07-13T04:55:47;7.10;;;1.80;;
39772;SDS011;25451;51.960;6.250;2023-07-13T04:58:12;5.03;;;1.80;;
39772;SDS011;25451;51.960;6.250;2023-07-13T05:00:38;8.53;;;2.10;;
39772;SDS011;25451;51.960;6.250;2023-07-13T05:03:04;6.03;;;1.95;;
39772;SDS011;25451;51.960;6.250;2023-07-13T05:05:30;6.70;;;2.13;;
39772;SDS011;25451;51.960;6.250;2023-07-13T05:07:55;7.20;;;1.97;;
39772;SDS011;25451;51.960;6.250;2023-07-13T05:10:21;7.20;;;1.90;;
39772;SDS011;25451;51.960;6.250;2023-07-13T05:12:47;12.65;;;2.53;;
39772;SDS011;25451;51.960;6.250;2023-07-13T05:15:12;6.80;;;1.90;;
39772;SDS011;25451;51.960;6.250;2023-07-13T05:17:38;7.45;;;1.80;;
39772;SDS011;25451;51.960;6.250;2023-07-13T05:20:07;7.63;;;2.17;;
39772;SDS011;25451;51.960;6.250;2023-07-13T05:22:33;6.95;;;2.13;;
39772;SDS011;25451;51.960;6.250;2023-07-13T05:25:00;9.52;;;2.40;;
39772;SDS011;25451;51.960;6.250;2023-07-13T05:27:26;6.53;;;1.75;;
39772;SDS011;25451;51.960;6.250;2023-07-13T05:29:52;7.73;;;2.10;;
39772;SDS011;25451;51.960;6.250;2023-07-13T05:32:17;7.13;;;2.30;;
39772;SDS011;25451;51.960;6.250;2023-07-13T05:34:43;8.20;;;2.67;;
39772;SDS011;25451;51.960;6.250;2023-07-13T05:37:09;8.55;;;2.15;;
39772;SDS011;25451;51.960;6.250;2023-07-13T05:39:35;7.55;;;2.47;;
39772;SDS011;25451;51.960;6.250;2023-07-13T05:42:01;11.77;;;2.60;;
39772;SDS011;25451;51.960;6.250;2023-07-13T05:44:27;9.38;;;2.75;;
39772;SDS011;25451;51.960;6.250;2023-07-13T05:46:52;10.77;;;2.83;;
39772;SDS011;25451;51.960;6.250;2023-07-13T05:49:18;7.28;;;2.83;;
39772;SDS011;25451;51.960;6.250;2023-07-13T05:51:43;10.83;;;3.07;;
39772;SDS011;25451;51.960;6.250;2023-07-13T05:54:09;9.60;;;3.10;;
39772;SDS011;25451;51.960;6.250;2023-07-13T05:56:34;9.25;;;3.25;;
39772;SDS011;25451;51.960;6.250;2023-07-13T05:58:59;9.43;;;2.57;;
39772;SDS011;25451;51.960;6.250;2023-07-13T06:01:25;6.40;;;2.60;;
39772;SDS011;25451;51.960;6.250;2023-07-13T06:03:51;7.78;;;2.65;;
39772;SDS011;25451;51.960;6.250;2023-07-13T06:06:16;13.93;;;3.60;;
39772;SDS011;25451;51.960;6.250;2023-07-13T06:08:42;10.15;;;3.35;;
39772;SDS011;25451;51.960;6.250;2023-07-13T06:11:09;10.77;;;3.50;;
39772;SDS011;25451;51.960;6.250;2023-07-13T06:13:39;12.77;;;4.13;;
39772;SDS011;25451;51.960;6.250;2023-07-13T06:16:04;12.80;;;3.97;;
39772;SDS011;25451;51.960;6.250;2023-07-13T06:18:31;11.93;;;4.20;;
39772;SDS011;25451;51.960;6.250;2023-07-13T06:20:58;10.90;;;3.70;;
39772;SDS011;25451;51.960;6.250;2023-07-13T06:23:23;11.43;;;4.50;;
39772;SDS011;25451;51.960;6.250;2023-07-13T06:25:49;11.70;;;4.43;;
39772;SDS011;25451;51.960;6.250;2023-07-13T06:28:15;12.70;;;4.30;;
39772;SDS011;25451;51.960;6.250;2023-07-13T06:30:40;14.87;;;4.50;;
39772;SDS011;25451;51.960;6.250;2023-07-13T06:33:06;15.33;;;4.57;;
39772;SDS011;25451;51.960;6.250;2023-07-13T06:35:32;10.38;;;4.75;;
39772;SDS011;25451;51.960;6.250;2023-07-13T06:37:57;16.90;;;5.30;;
39772;SDS011;25451;51.960;6.250;2023-07-13T06:40:23;12.10;;;4.70;;
39772;SDS011;25451;51.960;6.250;2023-07-13T06:42:48;12.65;;;4.90;;
39772;SDS011;25451;51.960;6.250;2023-07-13T06:45:13;15.77;;;4.90;;
39772;SDS011;25451;51.960;6.250;2023-07-13T06:47:39;14.17;;;5.00;;
39772;SDS011;25451;51.960;6.250;2023-07-13T06:50:04;15.70;;;5.40;;
39772;SDS011;25451;51.960;6.250;2023-07-13T06:52:30;16.83;;;5.82;;
39772;SDS011;25451;51.960;6.250;2023-07-13T06:54:56;17.97;;;5.80;;
39772;SDS011;25451;51.960;6.250;2023-07-13T06:57:21;18.13;;;5.83;;
39772;SDS011;25451;51.960;6.250;2023-07-13T06:59:46;15.52;;;5.93;;
39772;SDS011;25451;51.960;6.250;2023-07-13T07:02:12;13.63;;;5.70;;
39772;SDS011;25451;51.960;6.250;2023-07-13T07:04:37;16.17;;;5.33;;
39772;SDS011;25451;51.960;6.250;2023-07-13T07:07:03;14.77;;;5.23;;
39772;SDS011;25451;51.960;6.250;2023-07-13T07:09:28;17.08;;;5.72;;
39772;SDS011;25451;51.960;6.250;2023-07-13T07:11:56;15.68;;;5.53;;
39772;SDS011;25451;51.960;6.250;2023-07-13T07:14:22;16.17;;;5.90;;
39772;SDS011;25451;51.960;6.250;2023-07-13T07:16:47;16.73;;;6.65;;
39772;SDS011;25451;51.960;6.250;2023-07-13T07:19:13;15.43;;;6.07;;
39772;SDS011;25451;51.960;6.250;2023-07-13T07:21:38;13.67;;;5.80;;
39772;SDS011;25451;51.960;6.250;2023-07-13T07:24:04;19.67;;;9.37;;
39772;SDS011;25451;51.960;6.250;2023-07-13T07:26:30;15.88;;;6.68;;
39772;SDS011;25451;51.960;6.250;2023-07-13T07:28:55;12.05;;;5.30;;
39772;SDS011;25451;51.960;6.250;2023-07-13T07:31:21;15.43;;;5.87;;
39772;SDS011;25451;51.960;6.250;2023-07-13T07:33:46;18.60;;;5.47;;
39772;SDS011;25451;51.960;6.250;2023-07-13T07:36:11;16.97;;;5.60;;
39772;SDS011;25451;51.960;6.250;2023-07-13T07:38:37;20.43;;;6.90;;
39772;SDS011;25451;51.960;6.250;2023-07-13T07:41:03;14.70;;;5.95;;
39772;SDS011;25451;51.960;6.250;2023-07-13T07:43:29;15.20;;;5.73;;
39772;SDS011;25451;51.960;6.250;2023-07-13T07:45:56;14.50;;;5.63;;
39772;SDS011;25451;51.960;6.250;2023-07-13T07:48:21;13.87;;;5.60;;
39772;SDS011;25451;51.960;6.250;2023-07-13T07:50:47;15.03;;;6.20;;
39772;SDS011;25451;51.960;6.250;2023-07-13T07:53:12;18.23;;;6.10;;
39772;SDS011;25451;51.960;6.250;2023-07-13T07:55:38;15.90;;;5.77;;
39772;SDS011;25451;51.960;6.250;2023-07-13T07:58:04;17.85;;;6.25;;
39772;SDS011;25451;51.960;6.250;2023-07-13T08:00:30;14.67;;;5.90;;
39772;SDS011;25451;51.960;6.250;2023-07-13T08:02:57;16.83;;;6.15;;
39772;SDS011;25451;51.960;6.250;2023-07-13T08:05:23;16.38;;;5.93;;
39772;SDS011;25451;51.960;6.250;2023-07-13T08:07:48;15.90;;;6.37;;
39772;SDS011;25451;51.960;6.250;2023-07-13T08:10:13;16.13;;;6.43;;
39772;SDS011;25451;51.960;6.250;2023-07-13T08:12:39;13.43;;;5.97;;
39772;SDS011;25451;51.960;6.250;2023-07-13T08:15:06;20.37;;;6.70;;
39772;SDS011;25451;51.960;6.250;2023-07-13T08:17:35;17.48;;;6.28;;
39772;SDS011;25451;51.960;6.250;2023-07-13T08:20:00;14.37;;;6.27;;
39772;SDS011;25451;51.960;6.250;2023-07-13T08:22:26;15.38;;;5.53;;
39772;SDS011;25451;51.960;6.250;2023-07-13T08:24:52;13.73;;;6.10;;
39772;SDS011;25451;51.960;6.250;2023-07-13T08:27:21;12.90;;;5.65;;
39772;SDS011;25451;51.960;6.250;2023-07-13T08:29:48;15.52;;;5.65;;
39772;SDS011;25451;51.960;6.250;2023-07-13T08:32:14;15.43;;;5.68;;
39772;SDS011;25451;51.960;6.250;2023-07-13T08:34:39;15.00;;;5.53;;
39772;SDS011;25451;51.960;6.250;2023-07-13T08:37:05;14.20;;;5.72;;
39772;SDS011;25451;51.960;6.250;2023-07-13T08:39:32;13.23;;;5.30;;
39772;SDS011;25451;51.960;6.250;2023-07-13T08:41:59;15.25;;;5.88;;
39772;SDS011;25451;51.960;6.250;2023-07-13T08:47:21;13.45;;;5.80;;
39772;SDS011;25451;51.960;6.250;2023-07-13T08:49:48;19.10;;;5.80;;
39772;SDS011;25451;51.960;6.250;2023-07-13T08:55:12;13.95;;;5.25;;
39772;SDS011;25451;51.960;6.250;2023-07-13T08:57:41;11.00;;;4.95;;
39772;SDS011;25451;51.960;6.250;2023-07-13T09:00:11;14.35;;;4.90;;
39772;SDS011;25451;51.960;6.250;2023-07-13T09:02:46;13.38;;;5.70;;
39772;SDS011;25451;51.960;6.250;2023-07-13T09:05:22;13.87;;;5.60;;
39772;SDS011;25451;51.960;6.250;2023-07-13T09:16:23;10.85;;;5.13;;
39772;SDS011;25451;51.960;6.250;2023-07-13T09:18:52;15.02;;;4.90;;
39772;SDS011;25451;51.960;6.250;2023-07-13T09:21:24;14.63;;;5.00;;
39772;SDS011;25451;51.960;6.250;2023-07-13T09:26:53;14.30;;;5.25;;
39772;SDS011;25451;51.960;6.250;2023-07-13T09:29:29;16.27;;;5.70;;
39772;SDS011;25451;51.960;6.250;2023-07-13T09:32:04;13.53;;;5.00;;
39772;SDS011;25451;51.960;6.250;2023-07-13T09:34:33;13.70;;;5.22;;
39772;SDS011;25451;51.960;6.250;2023-07-13T09:37:01;14.98;;;5.60;;
39772;SDS011;25451;51.960;6.250;2023-07-13T09:39:35;14.18;;;4.68;;
39772;SDS011;25451;51.960;6.250;2023-07-13T09:44:36;10.97;;;4.23;;
39772;SDS011;25451;51.960;6.250;2023-07-13T09:47:24;12.90;;;4.50;;
39772;SDS011;25451;51.960;6.250;2023-07-13T09:50:09;12.20;;;4.70;;
39772;SDS011;25451;51.960;6.250;2023-07-13T09:52:43;9.68;;;3.80;;
39772;SDS011;25451;51.960;6.250;2023-07-13T09:57:58;11.07;;;4.00;;
39772;SDS011;25451;51.960;6.250;2023-07-13T10:00:30;11.05;;;4.20;;
39772;SDS011;25451;51.960;6.250;2023-07-13T10:03:01;9.45;;;3.83;;
39772;SDS011;25451;51.960;6.250;2023-07-13T10:05:52;9.90;;;4.22;;
39772;SDS011;25451;51.960;6.250;2023-07-13T10:08:21;11.10;;;3.88;;
39772;SDS011;25451;51.960;6.250;2023-07-13T10:10:57;11.77;;;4.20;;
39772;SDS011;25451;51.960;6.250;2023-07-13T10:13:29;11.43;;;3.80;;
39772;SDS011;25451;51.960;6.250;2023-07-13T10:16:04;13.60;;;4.75;;
39772;SDS011;25451;51.960;6.250;2023-07-13T10:18:52;14.50;;;5.30;;
39772;SDS011;25451;51.960;6.250;2023-07-13T10:21:57;12.13;;;5.47;;
39772;SDS011;25451;51.960;6.250;2023-07-13T10:24:33;10.53;;;4.57;;
39772;SDS011;25451;51.960;6.250;2023-07-13T10:27:15;10.80;;;4.60;;
39772;SDS011;25451;51.960;6.250;2023-07-13T10:32:50;7.30;;;4.00;;
39772;SDS011;25451;51.960;6.250;2023-07-13T10:35:19;7.32;;;4.10;;
39772;SDS011;25451;51.960;6.250;2023-07-13T10:40:31;9.52;;;4.82;;
39772;SDS011;25451;51.960;6.250;2023-07-13T10:43:01;8.05;;;4.80;;
39772;SDS011;25451;51.960;6.250;2023-07-13T10:45:35;11.80;;;5.07;;
39772;SDS011;25451;51.960;6.250;2023-07-13T10:48:02;9.75;;;5.40;;
39772;SDS011;25451;51.960;6.250;2023-07-13T10:50:29;11.83;;;6.00;;
39772;SDS011;25451;51.960;6.250;2023-07-13T10:53:32;11.20;;;6.00;;
39772;SDS011;25451;51.960;6.250;2023-07-13T10:55:55;9.32;;;5.50;;
39772;SDS011;25451;51.960;6.250;2023-07-13T11:01:16;10.55;;;5.35;;
39772;SDS011;25451;51.960;6.250;2023-07-13T11:08:56;10.60;;;4.85;;
39772;SDS011;25451;51.960;6.250;2023-07-13T11:18:45;10.52;;;5.15;;
39772;SDS011;25451;51.960;6.250;2023-07-13T11:23:44;11.57;;;6.17;;
39772;SDS011;25451;51.960;6.250;2023-07-13T11:31:54;10.43;;;6.27;;
39772;SDS011;25451;51.960;6.250;2023-07-13T11:34:31;11.75;;;6.07;;
39772;SDS011;25451;51.960;6.250;2023-07-13T11:37:00;8.93;;;5.53;;
39772;SDS011;25451;51.960;6.250;2023-07-13T11:39:35;10.10;;;5.72;;
39772;SDS011;25451;51.960;6.250;2023-07-13T11:42:07;11.57;;;5.53;;
39772;SDS011;25451;51.960;6.250;2023-07-13T11:44:41;8.70;;;5.60;;
39772;SDS011;25451;51.960;6.250;2023-07-13T11:47:09;9.60;;;5.65;;
39772;SDS011;25451;51.960;6.250;2023-07-13T11:49:48;9.65;;;5.60;;
39772;SDS011;25451;51.960;6.250;2023-07-13T11:52:18;9.77;;;5.70;;
39772;SDS011;25451;51.960;6.250;2023-07-13T11:54:51;11.05;;;5.88;;
39772;SDS011;25451;51.960;6.250;2023-07-13T11:59:56;9.63;;;5.95;;
39772;SDS011;25451;51.960;6.250;2023-07-13T12:02:35;13.20;;;6.00;;
39772;SDS011;25451;51.960;6.250;2023-07-13T12:05:03;7.80;;;5.68;;
39772;SDS011;25451;51.960;6.250;2023-07-13T12:07:31;11.15;;;6.22;;
39772;SDS011;25451;51.960;6.250;2023-07-13T12:10:30;9.97;;;5.30;;
39772;SDS011;25451;51.960;6.250;2023-07-13T12:13:00;9.10;;;4.72;;
39772;SDS011;25451;51.960;6.250;2023-07-13T12:18:13;9.25;;;4.28;;
39772;SDS011;25451;51.960;6.250;2023-07-13T12:20:40;6.95;;;3.80;;
39772;SDS011;25451;51.960;6.250;2023-07-13T12:23:10;6.10;;;3.50;;
39772;SDS011;25451;51.960;6.250;2023-07-13T12:25:47;5.43;;;3.08;;
39772;SDS011;25451;51.960;6.250;2023-07-13T12:28:23;6.03;;;2.63;;
39772;SDS011;25451;51.960;6.250;2023-07-13T12:31:03;5.18;;;2.35;;
39772;SDS011;25451;51.960;6.250;2023-07-13T12:33:43;4.60;;;2.17;;
39772;SDS011;25451;51.960;6.250;2023-07-13T12:36:08;6.97;;;2.65;;
39772;SDS011;25451;51.960;6.250;2023-07-13T12:38:37;4.65;;;2.30;;
39772;SDS011;25451;51.960;6.250;2023-07-13T12:41:02;5.03;;;2.27;;
39772;SDS011;25451;51.960;6.250;2023-07-13T12:43:28;6.27;;;2.20;;
39772;SDS011;25451;51.960;6.250;2023-07-13T12:46:03;5.03;;;2.30;;
39772;SDS011;25451;51.960;6.250;2023-07-13T12:48:40;6.07;;;2.30;;
39772;SDS011;25451;51.960;6.250;2023-07-13T12:51:09;7.25;;;2.45;;
39772;SDS011;25451;51.960;6.250;2023-07-13T12:53:38;5.38;;;2.40;;
39772;SDS011;25451;51.960;6.250;2023-07-13T12:56:09;5.10;;;2.40;;
39772;SDS011;25451;51.960;6.250;2023-07-13T12:58:43;4.78;;;2.10;;
39772;SDS011;25451;51.960;6.250;2023-07-13T13:01:11;5.97;;;2.38;;
39772;SDS011;25451;51.960;6.250;2023-07-13T13:03:39;4.78;;;2.30;;
39772;SDS011;25451;51.960;6.250;2023-07-13T13:08:41;5.30;;;2.37;;
39772;SDS011;25451;51.960;6.250;2023-07-13T13:11:08;6.95;;;2.30;;
39772;SDS011;25451;51.960;6.250;2023-07-13T13:13:34;5.07;;;2.20;;
39772;SDS011;25451;51.960;6.250;2023-07-13T13:18:42;8.63;;;2.20;;
39772;SDS011;25451;51.960;6.250;2023-07-13T13:21:09;4.97;;;2.25;;
39772;SDS011;25451;51.960;6.250;2023-07-13T13:23:34;4.78;;;1.60;;
39772;SDS011;25451;51.960;6.250;2023-07-13T13:26:00;4.77;;;1.50;;
39772;SDS011;25451;51.960;6.250;2023-07-13T13:28:26;5.03;;;1.67;;
39772;SDS011;25451;51.960;6.250;2023-07-13T13:30:52;3.13;;;1.47;;
39772;SDS011;25451;51.960;6.250;2023-07-13T13:33:18;2.83;;;1.30;;
39772;SDS011;25451;51.960;6.250;2023-07-13T13:35:45;4.95;;;1.33;;
39772;SDS011;25451;51.960;6.250;2023-07-13T13:40:41;5.07;;;1.58;;
39772;SDS011;25451;51.960;6.250;2023-07-13T13:43:17;3.65;;;1.40;;
39772;SDS011;25451;51.960;6.250;2023-07-13T13:45:44;3.63;;;1.50;;
39772;SDS011;25451;51.960;6.250;2023-07-13T13:48:14;4.32;;;1.80;;
39772;SDS011;25451;51.960;6.250;2023-07-13T13:50:42;3.67;;;1.53;;
39772;SDS011;25451;51.960;6.250;2023-07-13T13:53:11;3.20;;;1.50;;
39772;SDS011;25451;51.960;6.250;2023-07-13T13:55:41;3.45;;;1.80;;
39772;SDS011;25451;51.960;6.250;2023-07-13T13:58:10;4.20;;;1.57;;
39772;SDS011;25451;51.960;6.250;2023-07-13T14:00:38;4.30;;;1.90;;
39772;SDS011;25451;51.960;6.250;2023-07-13T14:03:08;5.50;;;1.83;;
39772;SDS011;25451;51.960;6.250;2023-07-13T14:05:40;4.95;;;1.80;;
39772;SDS011;25451;51.960;6.250;2023-07-13T14:08:11;5.43;;;1.53;;
39772;SDS011;25451;51.960;6.250;2023-07-13T14:10:39;5.88;;;1.90;;
39772;SDS011;25451;51.960;6.250;2023-07-13T14:13:07;8.23;;;1.80;;
39772;SDS011;25451;51.960;6.250;2023-07-13T14:15:44;4.13;;;1.90;;
39772;SDS011;25451;51.960;6.250;2023-07-13T14:18:10;7.13;;;2.08;;
39772;SDS011;25451;51.960;6.250;2023-07-13T14:20:36;4.00;;;1.85;;
39772;SDS011;25451;51.960;6.250;2023-07-13T14:23:02;5.73;;;2.07;;
39772;SDS011;25451;51.960;6.250;2023-07-13T14:25:27;4.37;;;2.20;;
39772;SDS011;25451;51.960;6.250;2023-07-13T14:27:55;3.90;;;2.08;;
39772;SDS011;25451;51.960;6.250;2023-07-13T14:30:24;5.38;;;2.08;;
39772;SDS011;25451;51.960;6.250;2023-07-13T14:32:49;4.93;;;1.90;;
39772;SDS011;25451;51.960;6.250;2023-07-13T14:35:17;4.55;;;2.00;;
39772;SDS011;25451;51.960;6.250;2023-07-13T14:37:45;5.10;;;2.10;;
39772;SDS011;25451;51.960;6.250;2023-07-13T14:42:37;6.17;;;2.37;;
39772;SDS011;25451;51.960;6.250;2023-07-13T14:45:03;8.33;;;2.00;;
39772;SDS011;25451;51.960;6.250;2023-07-13T14:47:28;3.67;;;1.95;;
39772;SDS011;25451;51.960;6.250;2023-07-13T14:49:54;6.03;;;2.50;;
39772;SDS011;25451;51.960;6.250;2023-07-13T14:52:20;5.80;;;2.80;;
39772;SDS011;25451;51.960;6.250;2023-07-13T14:54:49;4.88;;;2.40;;
39772;SDS011;25451;51.960;6.250;2023-07-13T14:57:16;5.72;;;2.40;;
39772;SDS011;25451;51.960;6.250;2023-07-13T14:59:43;6.05;;;2.65;;
39772;SDS011;25451;51.960;6.250;2023-07-13T15:04:54;8.30;;;2.50;;
39772;SDS011;25451;51.960;6.250;2023-07-13T15:07:20;4.43;;;2.05;;
39772;SDS011;25451;51.960;6.250;2023-07-13T15:09:46;5.50;;;1.97;;
39772;SDS011;25451;51.960;6.250;2023-07-13T15:12:13;4.68;;;1.90;;
39772;SDS011;25451;51.960;6.250;2023-07-13T15:14:38;3.25;;;1.70;;
39772;SDS011;25451;51.960;6.250;2023-07-13T15:17:04;5.40;;;1.90;;
39772;SDS011;25451;51.960;6.250;2023-07-13T15:19:30;5.75;;;1.85;;
39772;SDS011;25451;51.960;6.250;2023-07-13T15:21:57;4.32;;;1.60;;
39772;SDS011;25451;51.960;6.250;2023-07-13T15:24:23;5.07;;;2.30;;
39772;SDS011;25451;51.960;6.250;2023-07-13T15:26:49;3.95;;;1.50;;
39772;SDS011;25451;51.960;6.250;2023-07-13T15:29:17;4.60;;;1.50;;
39772;SDS011;25451;51.960;6.250;2023-07-13T15:31:43;5.88;;;1.55;;
39772;SDS011;25451;51.960;6.250;2023-07-13T15:34:13;6.18;;;2.00;;
39772;SDS011;25451;51.960;6.250;2023-07-13T15:36:41;4.03;;;1.77;;
39772;SDS011;25451;51.960;6.250;2023-07-13T15:39:06;3.40;;;1.60;;
39772;SDS011;25451;51.960;6.250;2023-07-13T15:41:33;4.10;;;1.77;;
39772;SDS011;25451;51.960;6.250;2023-07-13T15:43:59;5.27;;;1.73;;
39772;SDS011;25451;51.960;6.250;2023-07-13T15:46:30;3.33;;;1.60;;
39772;SDS011;25451;51.960;6.250;2023-07-13T15:48:55;5.28;;;1.60;;
39772;SDS011;25451;51.960;6.250;2023-07-13T15:51:23;4.60;;;1.70;;
39772;SDS011;25451;51.960;6.250;2023-07-13T15:53:55;4.50;;;1.75;;
39772;SDS011;25451;51.960;6.250;2023-07-13T15:56:25;5.32;;;1.50;;